Time;durP1;ratioP1;P1;durP2;ratioP2;P2;SDS_P1;SDS_P2;PMS_P1;PMS_P2;Temp;Humidity;BMP_temperature;BMP_pressure;BME280_temperature;BME280_humidity;BME280_pressure;Samples;Min_cycle;Max_cycle;Signal;HPM_P1;HPM_P2
2022/06/11 00:02:30;;;;;;;7.32;4.03;;;23.80;70.10;;;;;;6300698;27;80324;-70
2022/06/11 00:05:30;;;;;;;5.88;3.45;;;23.80;69.70;;;;;;6309228;27;80356;-70
2022/06/11 00:08:31;;;;;;;8.32;4.32;;;23.80;70.40;;;;;;6264472;27;83413;-70
2022/06/11 00:11:31;;;;;;;5.03;3.55;;;23.90;70.50;;;;;;6303776;27;80661;-71
2022/06/11 00:14:32;;;;;;;6.07;4.00;;;23.80;70.60;;;;;;6304726;27;81575;-70
2022/06/11 00:17:32;;;;;;;5.93;4.05;;;23.80;70.20;;;;;;6288547;27;83527;-70
2022/06/11 00:20:33;;;;;;;4.10;3.70;;;23.80;70.00;;;;;;6308723;27;80714;-72
2022/06/11 00:23:33;;;;;;;6.72;4.35;;;23.80;69.90;;;;;;6302397;27;80471;-70
2022/06/11 00:26:34;;;;;;;6.43;4.03;;;23.80;69.80;;;;;;6301607;27;81444;-69
2022/06/11 00:29:34;;;;;;;4.38;3.22;;;23.80;70.20;;;;;;6303905;27;80309;-70
2022/06/11 00:32:35;;;;;;;8.38;4.28;;;23.80;69.70;;;;;;6302320;27;81147;-69
2022/06/11 00:35:35;;;;;;;5.95;4.53;;;23.80;69.30;;;;;;6307246;27;80572;-70
2022/06/11 00:38:36;;;;;;;5.13;4.07;;;23.80;69.00;;;;;;6289563;27;81195;-71
2022/06/11 00:41:36;;;;;;;6.25;4.53;;;23.70;69.30;;;;;;6306715;27;82822;-71
2022/06/11 00:44:37;;;;;;;6.72;4.72;;;23.70;69.10;;;;;;6307186;27;80729;-71
2022/06/11 00:47:37;;;;;;;8.50;4.72;;;23.70;69.20;;;;;;6285911;27;80433;-71
2022/06/11 00:50:38;;;;;;;7.30;4.57;;;23.70;69.40;;;;;;6303031;27;82841;-71
2022/06/11 00:53:38;;;;;;;5.85;4.25;;;23.70;69.30;;;;;;6307299;27;81895;-71
2022/06/11 00:56:39;;;;;;;5.00;4.18;;;23.70;69.40;;;;;;6308275;27;80637;-71
2022/06/11 00:59:39;;;;;;;6.20;4.53;;;23.60;69.40;;;;;;6306237;27;80220;-70
2022/06/11 01:02:40;;;;;;;4.35;3.85;;;23.70;69.50;;;;;;6303866;27;81046;-71
2022/06/11 01:05:40;;;;;;;7.28;4.45;;;23.70;69.50;;;;;;6307115;27;80784;-70
2022/06/11 01:08:40;;;;;;;5.95;3.83;;;23.70;69.30;;;;;;6307764;27;80492;-69
2022/06/11 01:11:41;;;;;;;6.13;4.60;;;23.70;69.40;;;;;;6302670;27;84240;-69
2022/06/11 01:14:41;;;;;;;5.90;4.30;;;23.70;69.60;;;;;;6306067;27;81503;-70
2022/06/11 01:17:42;;;;;;;5.70;4.18;;;23.60;69.80;;;;;;6307920;27;81563;-70
2022/06/11 01:20:42;;;;;;;7.50;4.30;;;23.60;68.90;;;;;;6307797;27;80193;-70
2022/06/11 01:23:43;;;;;;;7.82;4.07;;;23.60;69.20;;;;;;6303991;27;80372;-70
2022/06/11 01:26:43;;;;;;;5.28;4.15;;;23.60;68.80;;;;;;6307576;27;81872;-71
2022/06/11 01:29:46;;;;;;;7.28;4.20;;;23.60;69.20;;;;;;6307309;27;80845;-70
2022/06/11 01:32:46;;;;;;;6.43;4.40;;;23.60;69.20;;;;;;6288839;27;81962;-71
2022/06/11 01:35:46;;;;;;;4.68;3.80;;;23.60;69.10;;;;;;6305725;27;80718;-70
2022/06/11 01:38:47;;;;;;;7.63;4.18;;;23.60;69.20;;;;;;6302168;27;80807;-70
2022/06/11 01:41:48;;;;;;;5.93;4.47;;;23.60;69.20;;;;;;6301338;27;80366;-71
2022/06/11 01:44:48;;;;;;;6.18;4.28;;;23.70;70.10;;;;;;6294145;27;81702;-71
2022/06/11 01:47:49;;;;;;;6.18;3.97;;;23.60;69.20;;;;;;6294439;27;80726;-71
2022/06/11 01:50:50;;;;;;;5.50;3.88;;;23.70;69.10;;;;;;6306528;27;81847;-70
2022/06/11 01:53:50;;;;;;;11.52;3.95;;;23.70;69.20;;;;;;6300651;27;80215;-70
2022/06/11 01:56:51;;;;;;;6.13;4.05;;;23.60;69.10;;;;;;6304718;27;80415;-70
2022/06/11 01:59:51;;;;;;;4.90;4.05;;;23.60;69.20;;;;;;6295544;27;80702;-70
2022/06/11 02:02:52;;;;;;;5.10;4.07;;;23.60;69.40;;;;;;6305646;27;80424;-70
2022/06/11 02:05:52;;;;;;;5.20;4.28;;;23.60;69.40;;;;;;6305875;27;81774;-70
2022/06/11 02:08:53;;;;;;;5.63;4.13;;;23.60;69.60;;;;;;6306096;27;81029;-70
2022/06/11 02:11:53;;;;;;;6.38;5.00;;;23.60;69.90;;;;;;6270496;27;81938;-71
2022/06/11 02:14:54;;;;;;;11.40;5.10;;;23.60;69.70;;;;;;6303616;27;80647;-72
2022/06/11 02:17:54;;;;;;;6.80;4.47;;;23.60;69.60;;;;;;6307218;27;81263;-72
2022/06/11 02:20:55;;;;;;;5.05;3.92;;;23.60;69.60;;;;;;6306685;27;80215;-72
2022/06/11 02:23:55;;;;;;;5.95;4.20;;;23.60;69.60;;;;;;6310035;27;80772;-71
2022/06/11 02:26:56;;;;;;;7.13;4.53;;;23.60;69.30;;;;;;6311360;27;80639;-71
2022/06/11 02:29:56;;;;;;;6.20;4.50;;;23.50;69.30;;;;;;6308610;27;80649;-72
2022/06/11 02:32:57;;;;;;;7.63;4.90;;;23.60;69.70;;;;;;6307483;27;80350;-71
2022/06/11 02:35:58;;;;;;;4.53;4.05;;;23.60;69.50;;;;;;6305303;27;80938;-71
2022/06/11 02:38:59;;;;;;;6.38;4.47;;;23.60;69.50;;;;;;6311376;27;80624;-68
2022/06/11 02:41:59;;;;;;;10.32;4.72;;;23.60;69.40;;;;;;6310341;27;80387;-68
2022/06/11 02:45:00;;;;;;;7.82;3.63;;;23.60;69.60;;;;;;6304352;27;81325;-69
2022/06/11 02:48:00;;;;;;;8.98;3.45;;;23.60;70.40;;;;;;6308597;27;81846;-68
2022/06/11 02:51:01;;;;;;;5.47;3.92;;;23.60;70.10;;;;;;6310088;27;80433;-69
2022/06/11 02:54:01;;;;;;;4.43;3.50;;;23.60;70.20;;;;;;6302707;27;80869;-68
2022/06/11 02:57:01;;;;;;;8.60;3.50;;;23.60;70.30;;;;;;6310846;27;80586;-69
2022/06/11 03:00:02;;;;;;;6.45;4.13;;;23.60;70.40;;;;;;6312564;27;80814;-70
2022/06/11 03:03:02;;;;;;;3.75;3.33;;;23.60;70.40;;;;;;6308106;27;81074;-69
2022/06/11 03:06:03;;;;;;;5.82;4.28;;;23.60;70.50;;;;;;6304929;27;81103;-69
2022/06/11 03:09:03;;;;;;;4.85;3.60;;;23.60;70.60;;;;;;6310185;27;80262;-69
2022/06/11 03:12:04;;;;;;;4.50;3.28;;;23.60;70.50;;;;;;6310395;27;80529;-69
2022/06/11 03:15:04;;;;;;;4.32;3.47;;;23.60;70.50;;;;;;6288575;27;81467;-68
2022/06/11 03:18:05;;;;;;;4.05;3.40;;;23.60;70.50;;;;;;6305942;27;80452;-68
2022/06/11 03:21:05;;;;;;;4.32;3.30;;;23.60;70.60;;;;;;6305336;27;80134;-68
2022/06/11 03:24:06;;;;;;;4.70;3.15;;;23.60;70.60;;;;;;6309648;27;80245;-69
2022/06/11 03:27:06;;;;;;;4.00;3.40;;;23.60;70.60;;;;;;6307733;27;80802;-69
2022/06/11 03:30:07;;;;;;;4.00;3.55;;;23.60;70.60;;;;;;6290161;27;82517;-69
2022/06/11 03:33:07;;;;;;;4.13;3.10;;;23.70;70.70;;;;;;6305643;27;80549;-68
2022/06/11 03:36:09;;;;;;;5.20;3.60;;;23.70;70.80;;;;;;6308155;27;80977;-69
2022/06/11 03:39:09;;;;;;;4.00;3.03;;;23.70;70.80;;;;;;6305791;27;80901;-68
2022/06/11 03:42:10;;;;;;;4.07;2.90;;;23.60;70.60;;;;;;6304853;27;80451;-69
2022/06/11 03:45:10;;;;;;;3.80;3.10;;;23.70;70.70;;;;;;6304196;27;80180;-69
2022/06/11 03:48:11;;;;;;;3.53;3.05;;;23.70;70.80;;;;;;6299761;27;81437;-69
2022/06/11 03:51:12;;;;;;;7.53;3.22;;;23.70;70.60;;;;;;6311573;27;80826;-68
2022/06/11 03:54:12;;;;;;;10.07;3.55;;;23.70;70.70;;;;;;6301088;27;81324;-68
2022/06/11 03:57:12;;;;;;;7.50;2.90;;;23.70;70.50;;;;;;6309231;27;80595;-68
2022/06/11 04:00:13;;;;;;;3.50;2.83;;;23.70;70.90;;;;;;6299138;27;80488;-68
2022/06/11 04:03:13;;;;;;;3.10;2.75;;;23.80;70.90;;;;;;6308639;27;80332;-68
2022/06/11 04:06:14;;;;;;;5.30;3.08;;;23.70;70.90;;;;;;6305133;27;80858;-68
2022/06/11 04:09:14;;;;;;;4.05;3.25;;;23.80;71.00;;;;;;6306412;27;81576;-68
2022/06/11 04:12:15;;;;;;;3.72;3.03;;;23.80;70.40;;;;;;6306144;27;80270;-68
2022/06/11 04:15:15;;;;;;;11.00;3.53;;;23.70;70.80;;;;;;6305289;27;80411;-68
2022/06/11 04:18:16;;;;;;;4.20;3.25;;;23.80;70.50;;;;;;6294531;27;80767;-68
2022/06/11 04:21:16;;;;;;;5.25;2.85;;;23.80;70.60;;;;;;6305053;27;80719;-68
2022/06/11 04:24:17;;;;;;;3.78;2.58;;;23.80;70.30;;;;;;6308430;27;80955;-68
2022/06/11 04:27:17;;;;;;;5.18;3.20;;;23.90;70.40;;;;;;6306733;27;80457;-68
2022/06/11 04:30:18;;;;;;;5.65;2.80;;;23.80;70.20;;;;;;6305166;27;80174;-72
2022/06/11 04:33:18;;;;;;;4.85;3.00;;;23.80;70.40;;;;;;6294785;27;80431;-72
2022/06/11 04:36:19;;;;;;;8.05;3.35;;;23.90;70.40;;;;;;6298283;27;81022;-71
2022/06/11 04:39:19;;;;;;;5.70;3.30;;;23.90;70.70;;;;;;6298535;27;80283;-73
2022/06/11 04:42:20;;;;;;;3.42;2.80;;;24.00;70.60;;;;;;6298970;27;81561;-73
2022/06/11 04:45:21;;;;;;;3.25;2.80;;;23.90;71.00;;;;;;6302698;27;81671;-70
2022/06/11 04:48:22;;;;;;;4.07;2.97;;;24.00;70.80;;;;;;6308196;27;80755;-71
2022/06/11 04:51:22;;;;;;;4.10;3.03;;;24.00;70.60;;;;;;6305779;27;80660;-71
2022/06/11 04:54:23;;;;;;;3.70;2.70;;;24.00;70.70;;;;;;6301530;27;80730;-72
2022/06/11 04:57:24;;;;;;;5.60;2.97;;;24.00;70.50;;;;;;6305222;27;80543;-70
2022/06/11 05:00:24;;;;;;;5.72;2.67;;;24.00;70.70;;;;;;6302970;27;80486;-74
2022/06/11 05:03:25;;;;;;;4.00;2.97;;;24.00;71.30;;;;;;6305024;27;80030;-71
2022/06/11 05:06:25;;;;;;;6.60;2.83;;;24.10;71.10;;;;;;6306193;27;80501;-72
2022/06/11 05:09:26;;;;;;;3.88;2.72;;;24.10;70.90;;;;;;6302200;27;80216;-72
2022/06/11 05:12:26;;;;;;;4.40;2.85;;;24.10;70.90;;;;;;6304185;27;81010;-71
2022/06/11 05:15:27;;;;;;;3.92;2.78;;;24.10;71.30;;;;;;6305165;27;80334;-73
2022/06/11 05:18:27;;;;;;;5.93;2.80;;;24.10;70.50;;;;;;6307339;27;80864;-71
2022/06/11 05:21:28;;;;;;;4.45;2.63;;;24.10;70.10;;;;;;6285873;27;80580;-71
2022/06/11 05:24:29;;;;;;;5.28;2.75;;;24.10;70.30;;;;;;6288457;27;80391;-72
2022/06/11 05:27:30;;;;;;;5.50;3.05;;;24.10;69.00;;;;;;6304123;27;80905;-74
2022/06/11 05:30:30;;;;;;;3.95;2.97;;;24.00;68.80;;;;;;6282719;27;81632;-73
2022/06/11 05:33:30;;;;;;;5.63;3.22;;;24.00;68.20;;;;;;6292839;27;80961;-75
2022/06/11 05:36:31;;;;;;;3.50;2.78;;;24.10;68.00;;;;;;6310010;27;81585;-73
2022/06/11 05:39:31;;;;;;;4.75;2.90;;;24.00;67.40;;;;;;6300340;27;80960;-76
2022/06/11 05:42:32;;;;;;;8.15;3.60;;;24.10;67.10;;;;;;6294802;27;80723;-73
2022/06/11 05:45:32;;;;;;;4.10;2.80;;;24.00;66.70;;;;;;6307030;27;81542;-74
2022/06/11 05:48:33;;;;;;;4.65;2.72;;;24.10;66.20;;;;;;6304601;27;81049;-73
2022/06/11 05:51:33;;;;;;;6.28;3.22;;;24.10;65.90;;;;;;6298644;27;80727;-73
2022/06/11 05:54:34;;;;;;;7.30;2.58;;;24.10;64.70;;;;;;6296863;27;80322;-69
2022/06/11 05:57:34;;;;;;;5.72;3.42;;;24.10;64.90;;;;;;6302713;27;82403;-71
2022/06/11 06:00:35;;;;;;;7.65;3.22;;;24.20;64.50;;;;;;6310221;27;80873;-71
2022/06/11 06:03:35;;;;;;;15.73;3.00;;;24.20;64.00;;;;;;6309665;27;80878;-73
2022/06/11 06:06:36;;;;;;;3.53;3.00;;;24.20;63.20;;;;;;6305157;27;80344;-72
2022/06/11 06:09:36;;;;;;;10.77;3.08;;;24.20;63.10;;;;;;6308085;27;80535;-68
2022/06/11 06:12:37;;;;;;;3.60;2.80;;;24.20;63.70;;;;;;6308639;27;81826;-68
2022/06/11 06:15:38;;;;;;;6.97;3.30;;;24.20;63.30;;;;;;6309708;27;80802;-70
2022/06/11 06:18:38;;;;;;;4.03;2.80;;;24.20;63.30;;;;;;6305347;27;81961;-73
2022/06/11 06:21:39;;;;;;;7.03;3.20;;;24.20;62.90;;;;;;6311207;27;81073;-72
2022/06/11 06:24:39;;;;;;;8.35;3.40;;;24.20;63.10;;;;;;6297635;27;81743;-72
2022/06/11 06:27:40;;;;;;;2.83;2.55;;;24.20;61.90;;;;;;6304066;27;81155;-70
2022/06/11 06:30:40;;;;;;;3.67;2.75;;;24.20;61.90;;;;;;6304939;27;80326;-71
2022/06/11 06:33:41;;;;;;;6.45;2.78;;;24.20;62.60;;;;;;6291269;27;80442;-73
2022/06/11 06:36:41;;;;;;;9.27;2.88;;;24.20;62.00;;;;;;6296638;27;81554;-72
2022/06/11 06:39:42;;;;;;;6.38;2.97;;;24.20;61.30;;;;;;6309345;27;81367;-71
2022/06/11 06:42:42;;;;;;;4.30;2.63;;;24.20;61.90;;;;;;6297167;27;81023;-73
2022/06/11 06:45:43;;;;;;;2.55;2.20;;;24.30;61.80;;;;;;6299217;27;80366;-73
2022/06/11 06:48:43;;;;;;;8.85;3.20;;;24.30;62.30;;;;;;6298580;27;80105;-66
2022/06/11 06:51:44;;;;;;;9.88;2.78;;;24.30;61.20;;;;;;6307185;27;80690;-67
2022/06/11 06:54:44;;;;;;;7.55;3.15;;;24.30;60.80;;;;;;6309486;27;81260;-71
2022/06/11 06:57:45;;;;;;;2.80;2.08;;;24.20;61.30;;;;;;6304507;27;81233;-74
2022/06/11 07:00:46;;;;;;;44.03;17.83;;;24.30;61.60;;;;;;6311064;27;81519;-74
2022/06/11 07:03:46;;;;;;;263.42;120.20;;;24.30;61.50;;;;;;6281974;27;83710;-72
2022/06/11 07:06:47;;;;;;;83.95;36.72;;;24.30;61.60;;;;;;6298541;27;85336;-71
2022/06/11 07:09:47;;;;;;;165.45;75.07;;;24.30;61.10;;;;;;6302426;27;85573;-70
2022/06/11 07:12:48;;;;;;;97.47;43.20;;;24.30;60.30;;;;;;6305896;27;83358;-72
2022/06/11 07:15:48;;;;;;;186.80;89.88;;;24.30;59.80;;;;;;6307768;27;83041;-71
2022/06/11 07:18:49;;;;;;;174.60;76.03;;;24.30;59.70;;;;;;6300021;27;83277;-70
2022/06/11 07:21:49;;;;;;;143.27;60.97;;;24.30;60.10;;;;;;6295449;27;83068;-70
2022/06/11 07:24:50;;;;;;;95.00;42.30;;;24.40;60.50;;;;;;6286295;27;83641;-70
2022/06/11 07:27:50;;;;;;;42.20;18.25;;;24.40;60.50;;;;;;6290118;27;82811;-70
2022/06/11 07:30:51;;;;;;;33.63;14.18;;;24.40;58.90;;;;;;6288196;27;84530;-70
2022/06/11 07:33:51;;;;;;;29.83;14.15;;;24.40;58.50;;;;;;6295258;27;83224;-70
2022/06/11 07:36:52;;;;;;;19.80;9.10;;;24.40;58.50;;;;;;6289346;27;83436;-71
2022/06/11 07:39:52;;;;;;;15.82;6.88;;;24.40;58.00;;;;;;6276084;27;83238;-71
2022/06/11 07:42:53;;;;;;;12.30;5.20;;;24.40;58.20;;;;;;6295538;27;80463;-71
2022/06/11 07:45:53;;;;;;;7.75;4.90;;;24.40;57.90;;;;;;6290296;27;80560;-72
2022/06/11 07:48:54;;;;;;;11.32;4.30;;;24.40;58.10;;;;;;6292163;27;80457;-71
2022/06/11 07:51:54;;;;;;;9.55;4.13;;;24.40;58.30;;;;;;6274973;27;80522;-71
2022/06/11 07:54:55;;;;;;;4.95;2.95;;;24.40;58.40;;;;;;6293000;27;80632;-71
2022/06/11 07:57:55;;;;;;;8.32;3.20;;;24.50;58.60;;;;;;6297254;27;80347;-71
2022/06/11 08:00:57;;;;;;;5.50;2.85;;;24.50;58.40;;;;;;6297959;27;80951;-73
2022/06/11 08:03:57;;;;;;;3.40;2.63;;;24.50;58.40;;;;;;6291582;27;80788;-73
2022/06/11 08:06:57;;;;;;;4.78;3.00;;;24.50;58.10;;;;;;6298317;27;80349;-72
2022/06/11 08:09:58;;;;;;;4.40;2.50;;;24.40;58.20;;;;;;6299778;27;80888;-73
2022/06/11 08:12:58;;;;;;;6.80;2.22;;;24.30;58.40;;;;;;6294746;27;80629;-73
2022/06/11 08:15:59;;;;;;;3.97;2.20;;;24.30;57.80;;;;;;6296161;27;80670;-73
2022/06/11 08:18:59;;;;;;;5.38;2.97;;;24.30;58.40;;;;;;6294798;27;80894;-73
2022/06/11 08:22:00;;;;;;;4.72;3.03;;;24.30;58.00;;;;;;6282134;27;81006;-73
2022/06/11 08:25:01;;;;;;;4.22;2.30;;;24.30;59.10;;;;;;6304750;27;80954;-73
2022/06/11 08:28:01;;;;;;;4.25;2.78;;;24.40;58.70;;;;;;6309735;27;81224;-72
2022/06/11 08:31:04;;;;;;;3.53;2.63;;;24.40;58.10;;;;;;6309676;27;80339;-73
2022/06/11 08:34:05;;;;;;;3.33;2.40;;;24.40;57.50;;;;;;6308273;27;80228;-73
2022/06/11 08:37:05;;;;;;;3.05;2.20;;;24.40;57.60;;;;;;6307510;27;80590;-70
2022/06/11 08:40:06;;;;;;;5.38;2.67;;;24.40;57.50;;;;;;6302548;27;84395;-71
2022/06/11 08:43:06;;;;;;;2.15;1.95;;;24.40;57.50;;;;;;6300734;27;80606;-73
2022/06/11 08:46:07;;;;;;;3.35;2.13;;;24.40;56.90;;;;;;6309385;27;80272;-70
2022/06/11 08:49:07;;;;;;;7.57;2.35;;;24.40;56.60;;;;;;6303911;27;80520;-70
2022/06/11 08:52:08;;;;;;;3.85;2.10;;;24.40;56.70;;;;;;6304643;27;80658;-71
2022/06/11 08:55:08;;;;;;;2.67;2.45;;;24.40;55.60;;;;;;6304507;27;80529;-69
2022/06/11 08:58:09;;;;;;;4.65;3.25;;;24.30;54.60;;;;;;6308755;27;80715;-71
2022/06/11 09:01:09;;;;;;;3.88;2.42;;;24.30;55.30;;;;;;6301113;27;80420;-72
2022/06/11 09:04:10;;;;;;;2.33;2.08;;;24.30;55.10;;;;;;6300224;27;82263;-72
2022/06/11 09:07:10;;;;;;;3.95;2.20;;;24.30;54.60;;;;;;6308315;27;80353;-72
2022/06/11 09:10:11;;;;;;;2.53;1.92;;;24.30;54.40;;;;;;6288646;27;81598;-73
2022/06/11 09:13:11;;;;;;;7.47;2.13;;;24.30;53.00;;;;;;6309397;27;80917;-73
2022/06/11 09:16:12;;;;;;;2.22;2.03;;;24.30;53.20;;;;;;6306691;27;80843;-73
2022/06/11 09:19:12;;;;;;;5.15;2.20;;;24.30;52.80;;;;;;6300409;27;80572;-72
2022/06/11 09:22:14;;;;;;;2.28;1.90;;;24.30;53.60;;;;;;6307753;27;80491;-70
2022/06/11 09:25:14;;;;;;;3.03;2.03;;;24.30;53.40;;;;;;6289722;27;81045;-72
2022/06/11 09:28:15;;;;;;;2.45;1.80;;;24.30;53.70;;;;;;6305079;27;80338;-69
2022/06/11 09:31:16;;;;;;;2.20;2.00;;;24.30;53.70;;;;;;6302235;27;80027;-71
2022/06/11 09:34:16;;;;;;;3.05;2.33;;;24.30;52.30;;;;;;6304009;27;80486;-71
2022/06/11 09:37:17;;;;;;;3.83;1.83;;;24.30;52.60;;;;;;6311385;27;80367;-71
2022/06/11 09:40:17;;;;;;;3.00;1.80;;;24.20;52.70;;;;;;6309106;27;80990;-72
2022/06/11 09:43:18;;;;;;;5.22;2.10;;;24.30;53.00;;;;;;6313203;27;80406;-72
2022/06/11 09:46:19;;;;;;;5.90;2.65;;;24.30;53.10;;;;;;6307837;27;80382;-72
2022/06/11 09:49:19;;;;;;;9.23;1.88;;;24.30;53.00;;;;;;6311306;27;80229;-71
2022/06/11 09:52:20;;;;;;;6.45;1.90;;;24.30;52.70;;;;;;6311099;27;80260;-72
2022/06/11 09:55:21;;;;;;;2.17;1.60;;;24.30;52.60;;;;;;6308496;27;80737;-71
2022/06/11 09:58:22;;;;;;;2.65;1.60;;;24.30;52.50;;;;;;6309468;27;80442;-72
2022/06/11 10:01:23;;;;;;;4.50;2.00;;;24.30;53.10;;;;;;6312784;27;80179;-70
2022/06/11 10:04:24;;;;;;;5.22;3.83;;;24.30;53.40;;;;;;6307235;27;80401;-72
2022/06/11 10:07:25;;;;;;;14.45;3.42;;;24.40;55.60;;;;;;6310340;27;81179;-72
2022/06/11 10:10:25;;;;;;;6.50;2.75;;;24.40;55.90;;;;;;6312163;27;80355;-71
2022/06/11 10:13:26;;;;;;;3.42;2.85;;;24.40;55.80;;;;;;6311145;27;80548;-71
2022/06/11 10:16:26;;;;;;;3.83;2.97;;;24.50;55.50;;;;;;6311854;27;80440;-71
2022/06/11 10:19:27;;;;;;;5.20;2.47;;;24.60;57.80;;;;;;6312762;27;80639;-72
2022/06/11 10:22:27;;;;;;;8.15;2.42;;;24.60;54.10;;;;;;6302869;27;80567;-71
2022/06/11 10:25:27;;;;;;;5.20;2.13;;;24.60;52.40;;;;;;6305886;27;80406;-70
2022/06/11 10:28:31;;;;;;;4.82;1.92;;;24.60;52.90;;;;;;6311708;27;80050;-71
2022/06/11 10:31:31;;;;;;;2.83;1.48;;;24.60;51.40;;;;;;6307789;27;80603;-72
2022/06/11 10:34:32;;;;;;;4.43;2.00;;;24.60;52.60;;;;;;6311710;27;80450;-71
2022/06/11 10:37:33;;;;;;;2.20;1.60;;;24.60;52.60;;;;;;6311581;27;80375;-71
2022/06/11 10:40:33;;;;;;;1.98;1.52;;;24.60;51.30;;;;;;6307788;27;80462;-72
2022/06/11 10:43:34;;;;;;;1.73;1.27;;;24.60;50.80;;;;;;6311443;27;81297;-71
2022/06/11 10:46:34;;;;;;;2.17;1.50;;;24.60;49.50;;;;;;6310692;27;80154;-72
2022/06/11 10:49:35;;;;;;;3.58;1.60;;;24.60;48.80;;;;;;6314022;27;80710;-72
2022/06/11 10:52:35;;;;;;;3.33;1.60;;;24.60;48.90;;;;;;6308494;27;80214;-66
2022/06/11 10:55:36;;;;;;;2.55;1.50;;;24.60;49.20;;;;;;6307779;27;80014;-70
2022/06/11 10:58:36;;;;;;;1.70;1.60;;;24.60;49.60;;;;;;6305939;27;81239;-70
2022/06/11 11:01:37;;;;;;;2.20;1.20;;;24.60;50.20;;;;;;6308298;27;80402;-71
2022/06/11 11:04:37;;;;;;;4.00;1.52;;;24.60;50.90;;;;;;6305740;27;80866;-72
2022/06/11 11:07:38;;;;;;;4.22;1.40;;;24.70;50.60;;;;;;6306480;27;80125;-70
2022/06/11 11:10:38;;;;;;;1.40;1.30;;;24.70;48.80;;;;;;6297795;27;80184;-70
2022/06/11 11:13:39;;;;;;;1.33;1.23;;;24.60;48.60;;;;;;6309204;27;80514;-72
2022/06/11 11:16:40;;;;;;;2.45;1.73;;;24.70;49.40;;;;;;6302648;27;80461;-71
2022/06/11 11:19:41;;;;;;;1.25;1.20;;;24.70;49.40;;;;;;6310048;27;81126;-68
2022/06/11 11:22:41;;;;;;;1.42;1.33;;;24.70;47.90;;;;;;6304977;27;80254;-69
2022/06/11 11:25:42;;;;;;;3.97;2.15;;;24.70;49.30;;;;;;6306630;27;80560;-71
2022/06/11 11:28:43;;;;;;;4.03;2.33;;;24.70;48.80;;;;;;6309311;27;81107;-69
2022/06/11 11:31:43;;;;;;;8.00;2.03;;;24.70;48.80;;;;;;6306271;27;80359;-69
2022/06/11 11:34:44;;;;;;;2.53;1.77;;;24.70;48.60;;;;;;6307255;27;80459;-70
2022/06/11 11:37:44;;;;;;;5.28;1.88;;;24.70;49.60;;;;;;6303990;27;80366;-67
2022/06/11 11:40:45;;;;;;;3.55;2.08;;;24.70;49.90;;;;;;6301803;27;80355;-69
2022/06/11 11:43:46;;;;;;;3.65;2.20;;;24.80;50.50;;;;;;6296681;27;80177;-68
2022/06/11 11:46:48;;;;;;;3.47;2.60;;;24.80;50.40;;;;;;6299313;27;80708;-68
2022/06/11 11:49:48;;;;;;;6.28;2.28;;;24.90;50.30;;;;;;6298997;27;80631;-69
2022/06/11 11:52:49;;;;;;;6.20;2.83;;;24.90;50.60;;;;;;6306906;27;80458;-69
2022/06/11 11:55:49;;;;;;;2.92;2.40;;;24.90;50.40;;;;;;6290677;27;80850;-72
2022/06/11 11:58:50;;;;;;;3.00;2.20;;;24.90;50.60;;;;;;6295866;27;80532;-70
2022/06/11 12:01:50;;;;;;;3.47;2.85;;;25.00;50.70;;;;;;6302283;27;80457;-71
2022/06/11 12:04:51;;;;;;;3.10;2.47;;;24.90;50.90;;;;;;6299850;27;80588;-68
2022/06/11 12:07:51;;;;;;;3.53;2.58;;;24.90;50.30;;;;;;6303593;27;81333;-69
2022/06/11 12:10:51;;;;;;;5.68;2.88;;;24.90;50.50;;;;;;6305646;27;80150;-69
2022/06/11 12:13:52;;;;;;;15.68;4.80;;;24.90;50.90;;;;;;6299984;27;81006;-70
2022/06/11 12:16:53;;;;;;;12.20;4.07;;;24.90;51.80;;;;;;6293620;27;81622;-69
2022/06/11 12:19:53;;;;;;;25.67;6.68;;;24.90;51.80;;;;;;6298571;27;81571;-63
2022/06/11 12:22:53;;;;;;;12.55;4.45;;;24.90;52.60;;;;;;6298295;27;81458;-70
2022/06/11 12:25:54;;;;;;;9.48;2.80;;;24.90;52.70;;;;;;6298455;27;80386;-70
2022/06/11 12:28:55;;;;;;;2.50;2.30;;;24.80;51.30;;;;;;6307744;27;80500;-68
2022/06/11 12:31:55;;;;;;;13.40;3.03;;;24.90;50.50;;;;;;6295967;27;80685;-72
2022/06/11 12:34:56;;;;;;;7.22;2.53;;;24.80;51.00;;;;;;6302312;27;84153;-72
2022/06/11 12:37:56;;;;;;;7.85;2.40;;;24.80;51.10;;;;;;6304837;27;80713;-72
2022/06/11 12:40:57;;;;;;;10.48;2.53;;;24.90;51.30;;;;;;6305334;27;80366;-67
2022/06/11 12:43:57;;;;;;;4.40;2.33;;;24.90;51.40;;;;;;6303850;27;80735;-69
2022/06/11 12:46:58;;;;;;;10.77;3.20;;;25.00;51.30;;;;;;6311524;27;81652;-71
2022/06/11 12:49:58;;;;;;;6.97;3.28;;;24.90;52.20;;;;;;6301531;27;80465;-68
2022/06/11 12:52:59;;;;;;;8.98;3.95;;;25.00;52.00;;;;;;6300507;27;81097;-71
2022/06/11 12:55:59;;;;;;;9.05;3.33;;;24.90;51.30;;;;;;6290418;27;80516;-70
2022/06/11 12:59:00;;;;;;;4.55;2.75;;;24.90;51.00;;;;;;6304268;27;82000;-69
2022/06/11 13:02:00;;;;;;;2.55;2.20;;;25.00;50.50;;;;;;6282566;27;81876;-69
2022/06/11 13:05:01;;;;;;;2.28;2.08;;;25.00;50.70;;;;;;6299046;27;80184;-70
2022/06/11 13:08:01;;;;;;;2.72;2.42;;;25.00;49.50;;;;;;6298670;27;81216;-69
2022/06/11 13:11:02;;;;;;;4.25;2.40;;;25.00;49.30;;;;;;6307854;27;80588;-69
2022/06/11 13:14:02;;;;;;;2.58;2.10;;;25.00;49.40;;;;;;6295687;27;80773;-68
2022/06/11 13:17:03;;;;;;;3.58;2.22;;;25.00;49.40;;;;;;6307365;27;79972;-68
2022/06/11 13:20:03;;;;;;;3.80;2.35;;;25.10;49.90;;;;;;6305293;27;80960;-69
2022/06/11 13:23:04;;;;;;;3.15;2.45;;;25.10;49.70;;;;;;6303336;27;80424;-70
2022/06/11 13:26:04;;;;;;;2.35;2.10;;;25.10;50.10;;;;;;6273415;27;81847;-69
2022/06/11 13:29:05;;;;;;;2.20;2.00;;;25.00;48.80;;;;;;6303443;27;81512;-68
2022/06/11 13:32:06;;;;;;;4.25;2.50;;;25.10;49.80;;;;;;6302661;27;81047;-69
2022/06/11 13:35:06;;;;;;;2.10;1.95;;;25.10;50.00;;;;;;6306539;27;80525;-70
2022/06/11 13:38:07;;;;;;;1.90;1.80;;;25.10;49.80;;;;;;6304164;27;80246;-70
2022/06/11 13:41:08;;;;;;;2.47;2.28;;;25.10;50.00;;;;;;6302935;27;82743;-68
2022/06/11 13:44:10;;;;;;;2.72;2.03;;;25.10;50.00;;;;;;6296812;27;80204;-69
2022/06/11 13:47:10;;;;;;;3.15;2.20;;;25.10;50.20;;;;;;6288342;27;81238;-68
2022/06/11 13:50:11;;;;;;;4.45;2.67;;;25.10;50.00;;;;;;6292021;27;85637;-69
2022/06/11 13:56:31;;;;;;;2.40;2.05;;;25.10;49.70;;;;;;6283640;27;80969;-71
2022/06/11 13:59:32;;;;;;;2.92;2.38;;;25.10;49.30;;;;;;6302617;27;80986;-71
2022/06/11 14:02:32;;;;;;;6.00;2.40;;;25.10;49.50;;;;;;6282456;27;80858;-71
2022/06/11 14:05:33;;;;;;;7.13;2.55;;;25.10;50.20;;;;;;6303165;27;80227;-68
2022/06/11 14:08:33;;;;;;;6.20;3.10;;;25.10;50.00;;;;;;6284987;27;81694;-69
2022/06/11 14:11:33;;;;;;;5.90;3.35;;;25.10;50.30;;;;;;6296851;27;80207;-67
2022/06/11 14:14:34;;;;;;;11.93;4.20;;;25.10;50.70;;;;;;6304459;27;81410;-67
2022/06/11 14:17:35;;;;;;;13.82;5.63;;;25.10;51.80;;;;;;6300906;27;81249;-69
2022/06/11 14:20:35;;;;;;;24.95;7.07;;;25.10;52.40;;;;;;6302014;27;80522;-67
2022/06/11 14:23:36;;;;;;;14.73;5.13;;;25.10;53.60;;;;;;6303537;27;80375;-67
2022/06/11 14:26:37;;;;;;;19.58;6.43;;;25.10;52.90;;;;;;6285422;27;81486;-68
2022/06/11 14:29:37;;;;;;;11.38;6.25;;;25.20;53.20;;;;;;6311558;27;80799;-67
2022/06/11 14:32:38;;;;;;;14.85;5.20;;;25.10;52.70;;;;;;6309163;27;80483;-66
2022/06/11 14:35:39;;;;;;;8.52;5.10;;;25.10;52.70;;;;;;6302540;27;80498;-68
2022/06/11 14:38:40;;;;;;;17.38;5.93;;;25.10;52.60;;;;;;6302185;27;80260;-67
2022/06/11 14:41:40;;;;;;;23.95;6.60;;;25.20;52.80;;;;;;6299095;27;80702;-69
2022/06/11 14:44:40;;;;;;;13.82;4.70;;;25.20;53.10;;;;;;6300161;27;80518;-63
2022/06/11 14:47:41;;;;;;;7.97;4.43;;;25.20;52.80;;;;;;6301781;27;80511;-65
2022/06/11 14:50:42;;;;;;;7.55;3.30;;;25.10;52.10;;;;;;6301782;27;80449;-70
2022/06/11 14:53:42;;;;;;;7.85;3.53;;;25.10;51.90;;;;;;6291370;27;81160;-72
2022/06/11 14:56:45;;;;;;;2.63;2.42;;;25.10;50.50;;;;;;6295828;27;80409;-72
2022/06/11 14:59:46;;;;;;;3.40;2.50;;;25.10;50.50;;;;;;6306711;27;80450;-69
2022/06/11 15:02:46;;;;;;;4.28;2.90;;;25.10;50.40;;;;;;6300260;27;80680;-71
2022/06/11 15:05:47;;;;;;;6.28;2.92;;;25.20;51.40;;;;;;6302823;27;81539;-70
2022/06/11 15:08:47;;;;;;;6.53;2.47;;;25.20;50.90;;;;;;6305288;27;81574;-71
2022/06/11 15:11:48;;;;;;;3.13;2.70;;;25.10;50.80;;;;;;6306324;27;82307;-70
2022/06/11 15:14:49;;;;;;;5.78;2.60;;;25.20;50.90;;;;;;6300950;27;81612;-71
2022/06/11 15:17:49;;;;;;;4.57;2.15;;;25.20;49.70;;;;;;6298934;27;80864;-70
2022/06/11 15:20:50;;;;;;;4.10;2.03;;;25.20;49.40;;;;;;6298334;27;80587;-71
2022/06/11 15:23:50;;;;;;;4.30;2.47;;;25.10;49.10;;;;;;6308791;27;80190;-69
2022/06/11 15:26:51;;;;;;;20.85;10.98;;;25.10;49.30;;;;;;6294633;27;80250;-70
2022/06/11 15:29:51;;;;;;;119.07;53.38;;;25.10;49.50;;;;;;6287058;27;83197;-68
2022/06/11 15:32:52;;;;;;;110.30;46.60;;;25.10;49.50;;;;;;6296392;27;83391;-69
2022/06/11 15:35:52;;;;;;;178.02;78.97;;;25.10;49.40;;;;;;6299503;27;84556;-69
2022/06/11 15:38:53;;;;;;;99.13;44.63;;;25.10;49.00;;;;;;6300537;27;84069;-69
2022/06/11 15:41:54;;;;;;;37.90;17.13;;;25.10;48.20;;;;;;6306784;27;83218;-70